createdAt,value
2024-04-13T00:00:36.770Z,100
2024-04-13T00:01:36.767Z,100
2024-04-13T00:02:37.387Z,100
2024-04-13T00:03:36.902Z,100
2024-04-13T00:04:37.528Z,100
2024-04-13T00:05:37.459Z,100
2024-04-13T00:06:36.741Z,100
2024-04-13T00:07:36.711Z,100
2024-04-13T00:08:36.701Z,100
2024-04-13T00:09:36.735Z,100
2024-04-13T00:10:36.694Z,100
2024-04-13T00:11:37.418Z,100
2024-04-13T00:12:37.396Z,100
2024-04-13T00:13:36.723Z,100
2024-04-13T00:15:37.897Z,100
2024-04-13T00:16:36.771Z,100
2024-04-13T00:17:36.763Z,100
2024-04-13T00:18:36.724Z,100
2024-04-13T00:19:36.694Z,100
2024-04-13T00:20:36.981Z,100
2024-04-13T00:21:36.728Z,100
2024-04-13T00:22:36.717Z,100
2024-04-13T00:23:36.732Z,100
2024-04-13T00:25:36.709Z,100
2024-04-13T00:26:36.715Z,100
2024-04-13T00:27:36.737Z,100
2024-04-13T00:28:37.647Z,100
2024-04-13T00:29:36.724Z,100
2024-04-13T00:30:36.768Z,100
2024-04-13T00:31:36.823Z,100
2024-04-13T00:32:36.745Z,100
2024-04-13T00:33:37.257Z,100
2024-04-13T00:34:37.183Z,100
2024-04-13T00:35:36.694Z,100
2024-04-13T00:36:37.267Z,100
2024-04-13T00:37:36.936Z,100
2024-04-13T00:38:36.702Z,100
2024-04-13T00:39:36.884Z,100
2024-04-13T00:40:36.723Z,100
2024-04-13T00:41:37.232Z,100
2024-04-13T00:42:36.755Z,100
2024-04-13T00:43:37.012Z,100
2024-04-13T00:45:36.818Z,100
2024-04-13T00:46:36.729Z,100
2024-04-13T00:47:37.275Z,100
2024-04-13T00:48:36.832Z,100
2024-04-13T00:49:35.787Z,100
2024-04-13T00:50:36.858Z,100
2024-04-13T00:51:37.727Z,100
2024-04-13T00:52:37.266Z,100
2024-04-13T00:53:37.377Z,100
2024-04-13T00:54:37.503Z,100
2024-04-13T00:55:36.717Z,100
2024-04-13T00:56:37.006Z,100
2024-04-13T00:57:36.705Z,100
2024-04-13T00:58:36.714Z,100
2024-04-13T00:59:41.902Z,100
2024-04-13T01:00:36.906Z,100
2024-04-13T01:01:36.731Z,100
2024-04-13T01:02:37.038Z,100
2024-04-13T01:03:37.209Z,100
2024-04-13T01:04:37.119Z,100
2024-04-13T01:05:36.826Z,100
2024-04-13T01:06:36.789Z,100
2024-04-13T01:07:36.711Z,100
2024-04-13T01:08:37.388Z,100
2024-04-13T01:09:36.735Z,100
2024-04-13T01:10:36.721Z,100
2024-04-13T01:11:36.714Z,100
2024-04-13T01:12:36.873Z,100
2024-04-13T01:13:36.772Z,100
2024-04-13T01:14:36.736Z,100
2024-04-13T01:15:37.474Z,100
2024-04-13T01:16:37.331Z,100
2024-04-13T01:17:37.304Z,100
2024-04-13T01:18:36.797Z,100
2024-04-13T01:19:36.166Z,100
2024-04-13T01:20:36.730Z,100
2024-04-13T01:21:36.893Z,100
2024-04-13T01:22:36.696Z,100
2024-04-13T01:23:36.721Z,100
2024-04-13T01:24:36.754Z,100
2024-04-13T01:25:36.727Z,100
2024-04-13T01:26:36.719Z,100
2024-04-13T01:27:37.204Z,100
2024-04-13T01:28:36.059Z,100
2024-04-13T01:29:36.712Z,100
2024-04-13T01:31:37.173Z,100
2024-04-13T01:33:36.782Z,100
2024-04-13T01:34:36.741Z,100
2024-04-13T01:35:36.705Z,100
2024-04-13T01:36:36.767Z,100
2024-04-13T01:37:36.707Z,100
2024-04-13T01:38:37.487Z,100
2024-04-13T01:39:37.476Z,100
2024-04-13T01:40:36.743Z,100
2024-04-13T01:41:36.732Z,100
2024-04-13T01:42:37.395Z,100
2024-04-13T01:43:36.731Z,100
2024-04-13T01:44:36.724Z,100
2024-04-13T01:45:37.356Z,100
2024-04-13T01:46:37.095Z,100
2024-04-13T01:47:36.865Z,100
2024-04-13T01:48:36.803Z,100
2024-04-13T01:49:35.809Z,100
2024-04-13T01:50:36.805Z,100
2024-04-13T01:51:37.594Z,100
2024-04-13T01:52:36.714Z,100
2024-04-13T01:53:37.335Z,100
2024-04-13T01:54:36.774Z,100
2024-04-13T01:55:36.718Z,100
2024-04-13T01:56:36.698Z,100
2024-04-13T01:57:36.765Z,100
2024-04-13T01:58:36.844Z,100
2024-04-13T01:59:37.106Z,100
2024-04-13T02:00:36.938Z,100
2024-04-13T02:01:36.774Z,100
2024-04-13T02:02:36.708Z,100
2024-04-13T02:03:37.362Z,100
2024-04-13T02:04:37.424Z,100
2024-04-13T02:05:36.706Z,100
2024-04-13T02:06:37.358Z,100
2024-04-13T02:07:37.565Z,100
2024-04-13T02:08:36.734Z,100
2024-04-13T02:09:36.734Z,100
2024-04-13T02:10:36.714Z,100
2024-04-13T02:11:36.805Z,100
2024-04-13T02:12:37.659Z,100
2024-04-13T02:13:37.493Z,100
2024-04-13T02:15:36.880Z,100
2024-04-13T02:16:37.452Z,100
2024-04-13T02:17:37.517Z,100
2024-04-13T02:18:36.831Z,100
2024-04-13T02:19:35.836Z,100
2024-04-13T02:20:37.077Z,100
2024-04-13T02:21:37.153Z,100
2024-04-13T02:22:36.825Z,100
2024-04-13T02:23:36.915Z,100
2024-04-13T02:24:36.845Z,100
2024-04-13T02:26:36.918Z,100
2024-04-13T02:27:37.623Z,100
2024-04-13T02:28:37.177Z,100
2024-04-13T02:29:37.263Z,100
2024-04-13T02:30:36.754Z,100
2024-04-13T02:31:36.717Z,100
2024-04-13T02:32:36.831Z,100
2024-04-13T02:33:36.819Z,100
2024-04-13T02:34:37.690Z,100
2024-04-13T02:35:36.736Z,100
2024-04-13T02:36:37.433Z,100
2024-04-13T02:37:36.908Z,100
2024-04-13T02:38:37.310Z,100
2024-04-13T02:39:36.759Z,100
2024-04-13T02:40:36.854Z,100
2024-04-13T02:41:36.992Z,100
2024-04-13T02:42:37.310Z,100
2024-04-13T02:43:36.719Z,100
2024-04-13T02:45:36.844Z,100
2024-04-13T02:46:36.734Z,100
2024-04-13T02:47:36.886Z,100
2024-04-13T02:48:37.428Z,100
2024-04-13T02:49:35.795Z,100
2024-04-13T02:50:36.713Z,100
2024-04-13T02:51:36.868Z,100
2024-04-13T02:52:36.903Z,100
2024-04-13T02:53:36.755Z,100
2024-04-13T02:54:37.326Z,100
2024-04-13T02:55:36.799Z,100
2024-04-13T02:56:36.722Z,100
2024-04-13T02:57:36.918Z,100
2024-04-13T02:58:36.982Z,100
2024-04-13T02:59:36.719Z,100
2024-04-13T03:00:37.007Z,100
2024-04-13T03:01:36.732Z,100
2024-04-13T03:02:37.321Z,100
2024-04-13T03:03:37.448Z,100
2024-04-13T03:04:37.376Z,100
2024-04-13T03:05:36.713Z,100
2024-04-13T03:06:36.854Z,100
2024-04-13T03:07:36.761Z,100
2024-04-13T03:08:36.737Z,100
2024-04-13T03:09:36.802Z,100
2024-04-13T03:10:37.245Z,100
2024-04-13T03:11:36.959Z,100
2024-04-13T03:12:36.786Z,100
2024-04-13T03:13:37.355Z,100
2024-04-13T03:15:37.003Z,100
2024-04-13T03:16:37.428Z,100
2024-04-13T03:17:36.761Z,100
2024-04-13T03:18:36.815Z,100
2024-04-13T03:19:35.835Z,100
2024-04-13T03:20:36.708Z,100
2024-04-13T03:21:37.028Z,100
2024-04-13T03:22:36.913Z,100
2024-04-13T03:23:36.727Z,100
2024-04-13T03:24:36.905Z,100
2024-04-13T03:25:36.744Z,100
2024-04-13T03:26:36.744Z,100
2024-04-13T03:27:36.848Z,100
2024-04-13T03:28:36.729Z,100
2024-04-13T03:29:37.186Z,100
2024-04-13T03:30:37.224Z,100
2024-04-13T03:31:36.718Z,100
2024-04-13T03:32:36.835Z,100
2024-04-13T03:33:37.649Z,100
2024-04-13T03:34:37.668Z,100
2024-04-13T03:35:37.162Z,100
2024-04-13T03:36:37.533Z,100
2024-04-13T03:37:36.740Z,100
2024-04-13T03:38:36.762Z,100
2024-04-13T03:39:36.757Z,100
2024-04-13T03:40:37.338Z,100
2024-04-13T03:41:36.759Z,100
2024-04-13T03:42:37.552Z,100
2024-04-13T03:43:37.815Z,100
2024-04-13T03:44:36.716Z,100
2024-04-13T03:45:36.854Z,100
2024-04-13T03:46:36.750Z,100
2024-04-13T03:47:36.804Z,100
2024-04-13T03:48:37.153Z,100
2024-04-13T03:49:35.798Z,100
2024-04-13T03:50:37.197Z,100
2024-04-13T03:51:37.418Z,100
2024-04-13T03:52:36.743Z,100
2024-04-13T03:53:37.310Z,100
2024-04-13T03:55:36.730Z,100
2024-04-13T03:56:36.976Z,100
2024-04-13T03:57:36.770Z,100
2024-04-13T03:58:36.044Z,100
2024-04-13T03:59:36.733Z,100
2024-04-13T04:00:36.788Z,100
2024-04-13T04:01:36.826Z,100
2024-04-13T04:02:37.147Z,100
2024-04-13T04:03:37.028Z,100
2024-04-13T04:04:37.379Z,100
2024-04-13T04:05:37.321Z,100
2024-04-13T04:06:39.120Z,100
2024-04-13T04:07:36.731Z,100
2024-04-13T04:08:36.767Z,100
2024-04-13T04:09:36.837Z,100
2024-04-13T04:10:36.797Z,100
2024-04-13T04:11:36.779Z,100
2024-04-13T04:12:36.756Z,100
2024-04-13T04:13:36.720Z,100
2024-04-13T04:14:38.840Z,100
2024-04-13T04:15:36.826Z,100
2024-04-13T04:16:37.253Z,100
2024-04-13T04:17:36.806Z,100
2024-04-13T04:18:36.915Z,100
2024-04-13T04:19:36.223Z,100
2024-04-13T04:20:37.297Z,100
2024-04-13T04:21:37.549Z,100
2024-04-13T04:22:36.776Z,100
2024-04-13T04:23:36.739Z,100
2024-04-13T04:24:36.814Z,100
2024-04-13T04:25:37.221Z,100
2024-04-13T04:26:36.740Z,100
2024-04-13T04:27:36.904Z,100
2024-04-13T04:28:36.718Z,100
2024-04-13T04:29:36.716Z,100
2024-04-13T04:30:36.951Z,100
2024-04-13T04:31:36.728Z,100
2024-04-13T04:32:37.178Z,100
2024-04-13T04:33:36.831Z,100
2024-04-13T04:34:37.000Z,100
2024-04-13T04:35:36.732Z,100
2024-04-13T04:36:36.800Z,100
2024-04-13T04:37:36.745Z,100
2024-04-13T04:38:36.912Z,100
2024-04-13T04:39:37.210Z,100
2024-04-13T04:40:36.753Z,100
2024-04-13T04:41:37.646Z,100
2024-04-13T04:42:36.814Z,100
2024-04-13T04:44:36.826Z,100
2024-04-13T04:45:37.615Z,100
2024-04-13T04:46:36.770Z,100
2024-04-13T04:47:36.813Z,100
2024-04-13T04:48:37.171Z,100
2024-04-13T04:49:35.827Z,100
2024-04-13T04:50:36.741Z,100
2024-04-13T04:51:36.865Z,100
2024-04-13T04:52:38.058Z,100
2024-04-13T04:53:36.739Z,100
2024-04-13T04:54:37.112Z,100
2024-04-13T04:55:37.349Z,100
2024-04-13T04:56:37.441Z,100
2024-04-13T04:57:36.891Z,100
2024-04-13T04:58:37.603Z,100
2024-04-13T04:59:36.739Z,100
2024-04-13T05:00:37.391Z,100
2024-04-13T05:01:36.734Z,100
2024-04-13T05:02:36.884Z,100
2024-04-13T05:03:37.475Z,100
2024-04-13T05:04:36.841Z,100
2024-04-13T05:05:37.095Z,100
2024-04-13T05:06:36.798Z,100
2024-04-13T05:07:37.111Z,100
2024-04-13T05:08:36.751Z,100
2024-04-13T05:09:37.453Z,100
2024-04-13T05:11:36.766Z,100
2024-04-13T05:12:37.078Z,100
2024-04-13T05:13:37.062Z,100
2024-04-13T05:15:36.794Z,100
2024-04-13T05:16:36.760Z,100
2024-04-13T05:17:36.828Z,100
2024-04-13T05:18:36.904Z,100
2024-04-13T05:19:36.297Z,100
2024-04-13T05:20:36.753Z,100
2024-04-13T05:21:36.882Z,100
2024-04-13T05:22:37.107Z,100
2024-04-13T05:23:37.516Z,100
2024-04-13T05:24:37.037Z,100
2024-04-13T05:25:36.749Z,100
2024-04-13T05:26:36.767Z,100
2024-04-13T05:27:37.520Z,100
2024-04-13T05:28:36.747Z,100
2024-04-13T05:29:37.275Z,100
2024-04-13T05:30:36.772Z,100
2024-04-13T05:31:36.748Z,100
2024-04-13T05:33:36.916Z,100
2024-04-13T05:34:36.745Z,100
2024-04-13T05:35:37.459Z,100
2024-04-13T05:36:36.795Z,100
2024-04-13T05:37:36.931Z,100
2024-04-13T05:38:36.769Z,100
2024-04-13T05:39:37.409Z,100
2024-04-13T05:40:36.748Z,100
2024-04-13T05:41:37.177Z,100
2024-04-13T05:42:36.821Z,100
2024-04-13T05:43:37.184Z,100
2024-04-13T05:45:37.425Z,100
2024-04-13T05:46:36.838Z,100
2024-04-13T05:47:36.871Z,100
2024-04-13T05:48:36.784Z,100
2024-04-13T05:50:37.571Z,100
2024-04-13T05:51:36.781Z,100
2024-04-13T05:52:37.403Z,100
2024-04-13T05:53:36.754Z,100
2024-04-13T05:54:36.801Z,100
2024-04-13T05:55:36.754Z,100
2024-04-13T05:56:36.731Z,100
2024-04-13T05:57:37.399Z,100
2024-04-13T05:59:36.755Z,100
2024-04-13T06:00:36.830Z,100
2024-04-13T06:01:36.901Z,100
2024-04-13T06:02:36.794Z,100
2024-04-13T06:03:36.932Z,100
2024-04-13T06:04:37.098Z,100
2024-04-13T06:05:39.271Z,100
2024-04-13T06:06:36.962Z,100
2024-04-13T06:07:36.786Z,100
2024-04-13T06:08:36.749Z,100
2024-04-13T06:09:37.349Z,100
2024-04-13T06:10:37.014Z,100
2024-04-13T06:11:36.789Z,100
2024-04-13T06:12:37.096Z,100
2024-04-13T06:14:37.512Z,100
2024-04-13T06:15:37.077Z,100
2024-04-13T06:16:36.765Z,100
2024-04-13T06:17:36.794Z,100
2024-04-13T06:18:36.791Z,100
2024-04-13T06:20:37.306Z,100
2024-04-13T06:21:36.738Z,100
2024-04-13T06:22:36.744Z,100
2024-04-13T06:23:37.012Z,100
2024-04-13T06:25:36.757Z,100
2024-04-13T06:26:36.761Z,100
2024-04-13T06:27:36.789Z,100
2024-04-13T06:28:36.337Z,100
2024-04-13T06:29:36.768Z,100
2024-04-13T06:30:36.804Z,100
2024-04-13T06:31:36.753Z,100
2024-04-13T06:32:36.889Z,100
2024-04-13T06:33:37.755Z,100
2024-04-13T06:34:36.853Z,100
2024-04-13T06:35:36.750Z,100
2024-04-13T06:36:37.237Z,100
2024-04-13T06:37:36.755Z,100
2024-04-13T06:38:36.752Z,100
2024-04-13T06:39:36.811Z,100
2024-04-13T06:40:36.767Z,100
2024-04-13T06:41:36.766Z,100
2024-04-13T06:42:37.483Z,100
2024-04-13T06:43:37.575Z,100
2024-04-13T06:45:37.290Z,100
2024-04-13T06:46:36.883Z,100
2024-04-13T06:47:37.478Z,100
2024-04-13T06:48:36.792Z,100
2024-04-13T06:50:36.757Z,100
2024-04-13T06:51:36.921Z,100
2024-04-13T06:52:36.746Z,100
2024-04-13T06:53:37.362Z,100
2024-04-13T06:54:37.404Z,100
2024-04-13T06:55:37.526Z,100
2024-04-13T06:56:36.779Z,100
2024-04-13T06:57:37.017Z,100
2024-04-13T06:58:37.341Z,100
2024-04-13T07:00:36.890Z,100
2024-04-13T07:01:36.778Z,100
2024-04-13T07:02:36.814Z,100
2024-04-13T07:03:36.841Z,100
2024-04-13T07:04:37.142Z,100
2024-04-13T07:05:36.758Z,100
2024-04-13T07:06:36.848Z,100
2024-04-13T07:07:36.754Z,100
2024-04-13T07:08:43.975Z,100
2024-04-13T07:09:36.773Z,100
2024-04-13T07:10:36.992Z,100
2024-04-13T07:11:37.022Z,100
2024-04-13T07:12:37.416Z,100
2024-04-13T07:13:36.785Z,100
2024-04-13T07:14:36.775Z,100
2024-04-13T07:15:37.007Z,100
2024-04-13T07:16:36.946Z,100
2024-04-13T07:17:36.801Z,100
2024-04-13T07:18:36.791Z,100
2024-04-13T07:19:36.233Z,100
2024-04-13T07:20:36.831Z,100
2024-04-13T07:21:36.912Z,100
2024-04-13T07:22:36.757Z,100
2024-04-13T07:23:37.320Z,100
2024-04-13T07:25:37.159Z,100
2024-04-13T07:26:36.800Z,100
2024-04-13T07:27:37.031Z,100
2024-04-13T07:28:37.178Z,100
2024-04-13T07:29:36.762Z,100
2024-04-13T07:31:37.388Z,100
2024-04-13T07:32:37.024Z,100
2024-04-13T07:33:36.932Z,100
2024-04-13T07:34:36.753Z,100
2024-04-13T07:35:37.054Z,100
2024-04-13T07:36:36.783Z,100
2024-04-13T07:37:36.783Z,100
2024-04-13T07:38:37.397Z,100
2024-04-13T07:39:37.574Z,100
2024-04-13T07:40:37.335Z,100
2024-04-13T07:41:36.765Z,100
2024-04-13T07:42:36.808Z,100
2024-04-13T07:43:37.197Z,100
2024-04-13T07:44:37.059Z,100
2024-04-13T07:45:36.857Z,100
2024-04-13T07:46:36.771Z,100
2024-04-13T07:47:36.960Z,100
2024-04-13T07:48:37.394Z,100
2024-04-13T07:49:35.826Z,100
2024-04-13T07:50:36.815Z,100
2024-04-13T07:51:37.196Z,100
2024-04-13T07:52:36.764Z,100
2024-04-13T07:53:36.905Z,100
2024-04-13T07:54:37.172Z,100
2024-04-13T07:55:36.893Z,100
2024-04-13T07:56:37.259Z,100
2024-04-13T07:57:37.653Z,100
2024-04-13T07:59:37.273Z,100
2024-04-13T08:00:37.504Z,100
2024-04-13T08:02:36.774Z,100
2024-04-13T08:03:37.213Z,100
2024-04-13T08:04:40.782Z,100
2024-04-13T08:05:37.343Z,100
2024-04-13T08:06:36.830Z,100
2024-04-13T08:07:37.088Z,100
2024-04-13T08:08:36.756Z,100
2024-04-13T08:09:36.786Z,100
2024-04-13T08:10:36.885Z,99.2
2024-04-13T08:11:36.819Z,100
2024-04-13T08:12:36.828Z,100
2024-04-13T08:13:37.536Z,100
2024-04-13T08:15:37.544Z,98.4
2024-04-13T08:17:37.207Z,99.8
2024-04-13T08:18:36.811Z,100
2024-04-13T08:20:37.211Z,99.4
2024-04-13T08:21:37.461Z,97.6
2024-04-13T08:22:37.466Z,97.6
2024-04-13T08:23:37.573Z,97.1
2024-04-13T08:24:37.508Z,97
2024-04-13T08:25:37.346Z,96.3
2024-04-13T08:27:36.877Z,95.2
2024-04-13T08:28:37.379Z,95.4
2024-04-13T08:30:36.804Z,94.4
2024-04-13T08:31:36.988Z,94.2
2024-04-13T08:32:37.407Z,95.9
2024-04-13T08:33:36.859Z,94.3
2024-04-13T08:34:37.220Z,94.4
2024-04-13T08:35:36.979Z,93
2024-04-13T08:36:37.081Z,93
2024-04-13T08:37:36.826Z,93.4
2024-04-13T08:38:36.778Z,94.2
2024-04-13T08:39:37.668Z,93.7
2024-04-13T08:40:37.399Z,94.6
2024-04-13T08:41:37.523Z,93.3
2024-04-13T08:42:36.808Z,94.7
2024-04-13T08:43:36.788Z,93.4
2024-04-13T08:45:37.488Z,94.1
2024-04-13T08:46:36.799Z,96.2
2024-04-13T08:47:36.868Z,95.7
2024-04-13T08:48:37.398Z,94.1
2024-04-13T08:49:36.791Z,93.6
2024-04-13T08:50:36.787Z,95.1
2024-04-13T08:51:35.904Z,95
2024-04-13T08:52:36.812Z,91.5
2024-04-13T08:53:37.174Z,93.4
2024-04-13T08:54:37.119Z,93.1
2024-04-13T08:56:38.518Z,93.1
2024-04-13T08:57:37.690Z,91.4
2024-04-13T08:58:35.874Z,91.7
2024-04-13T08:59:36.769Z,92
2024-04-13T09:00:37.002Z,91.2
2024-04-13T09:01:37.279Z,92.2
2024-04-13T09:02:36.866Z,92.1
2024-04-13T09:03:36.927Z,91.4
2024-04-13T09:04:37.714Z,91.9
2024-04-13T09:05:37.129Z,90.6
2024-04-13T09:06:36.853Z,89.8
2024-04-13T09:07:36.814Z,90.5
2024-04-13T09:08:36.805Z,90.2
2024-04-13T09:09:36.836Z,89.7
2024-04-13T09:10:37.643Z,89.9
2024-04-13T09:11:36.868Z,89
2024-04-13T09:13:39.298Z,89.5
2024-04-13T09:14:37.448Z,89.5
2024-04-13T09:15:36.851Z,88.7
2024-04-13T09:16:36.952Z,89.2
2024-04-13T09:18:37.728Z,87.5
2024-04-13T09:19:35.929Z,84.9
2024-04-13T09:20:36.790Z,84.1
2024-04-13T09:21:37.132Z,86.9
2024-04-13T09:22:37.176Z,86.2
2024-04-13T09:23:37.280Z,86.7
2024-04-13T09:24:36.843Z,85.3
2024-04-13T09:25:37.499Z,86.9
2024-04-13T09:26:36.795Z,87.3
2024-04-13T09:27:36.962Z,83.7
2024-04-13T09:28:36.804Z,83.9
2024-04-13T09:29:36.816Z,81.3
2024-04-13T09:30:36.840Z,81.1
2024-04-13T09:31:37.449Z,80.5
2024-04-13T09:32:37.279Z,83.8
2024-04-13T09:33:37.584Z,85.1
2024-04-13T09:34:37.477Z,85.2
2024-04-13T09:35:36.835Z,81.9
2024-04-13T09:36:38.701Z,80.8
2024-04-13T09:37:36.814Z,79.4
2024-04-13T09:38:36.832Z,81.4
2024-04-13T09:39:36.857Z,82.1
2024-04-13T09:40:36.924Z,79.6
2024-04-13T09:41:37.530Z,81.5
2024-04-13T09:42:37.328Z,80.4
2024-04-13T09:43:37.219Z,81
2024-04-13T09:44:36.919Z,80
2024-04-13T09:45:37.369Z,80.2
2024-04-13T09:46:36.879Z,80
2024-04-13T09:47:37.019Z,81
2024-04-13T09:48:36.980Z,81.4
2024-04-13T09:49:35.931Z,81
2024-04-13T09:50:36.810Z,78.7
2024-04-13T09:51:37.169Z,80.6
2024-04-13T09:53:36.898Z,80.8
2024-04-13T09:54:37.317Z,79.6
2024-04-13T09:55:37.567Z,78.7
2024-04-13T09:56:31.674Z,78.4
2024-04-13T09:57:37.279Z,80.7
2024-04-13T09:58:36.878Z,79.5
2024-04-13T09:59:37.246Z,78.5
2024-04-13T10:00:37.042Z,76.3
2024-04-13T10:01:37.216Z,74.5
2024-04-13T10:02:37.632Z,75
2024-04-13T10:04:36.926Z,77
2024-04-13T10:05:36.816Z,76
2024-04-13T10:06:36.834Z,76.4
2024-04-13T10:07:36.865Z,77.8
2024-04-13T10:08:36.857Z,78.1
2024-04-13T10:09:37.284Z,75.6
2024-04-13T10:11:36.846Z,75.4
2024-04-13T10:12:36.839Z,73.7
2024-04-13T10:13:37.010Z,75.6
2024-04-13T10:14:36.849Z,74.7
2024-04-13T10:15:37.040Z,77.2
2024-04-13T10:16:37.229Z,77.7
2024-04-13T10:17:37.610Z,78
2024-04-13T10:18:37.634Z,75.3
2024-04-13T10:19:36.423Z,74.6
2024-04-13T10:20:36.837Z,72.6
2024-04-13T10:21:37.735Z,71
2024-04-13T10:22:38.594Z,71.6
2024-04-13T10:23:36.979Z,73.8
2024-04-13T10:25:36.877Z,70.1
2024-04-13T10:26:37.581Z,73.3
2024-04-13T10:27:36.862Z,74.5
2024-04-13T10:28:37.021Z,74.1
2024-04-13T10:30:37.071Z,72.5
2024-04-13T10:31:36.867Z,70.3
2024-04-13T10:32:36.898Z,69.8
2024-04-13T10:33:36.912Z,68.4
2024-04-13T10:34:36.966Z,68.2
2024-04-13T10:35:36.921Z,68.4
2024-04-13T10:36:37.293Z,68.3
2024-04-13T10:37:37.552Z,67.5
2024-04-13T10:38:36.969Z,66.4
2024-04-13T10:39:37.540Z,67.5
2024-04-13T10:40:36.951Z,68
2024-04-13T10:41:37.622Z,68.3
2024-04-13T10:42:36.914Z,68.5
2024-04-13T10:43:36.918Z,70.1
2024-04-13T10:45:37.157Z,69
2024-04-13T10:46:36.930Z,67.3
2024-04-13T10:47:36.971Z,66.5
2024-04-13T10:48:36.996Z,67
2024-04-13T10:49:35.904Z,66.8
2024-04-13T10:50:36.869Z,66.8
2024-04-13T10:51:37.001Z,66.6
2024-04-13T10:52:37.023Z,66.9
2024-04-13T10:53:36.926Z,66.7
2024-04-13T10:54:37.005Z,66.4
2024-04-13T10:55:36.817Z,68.2
2024-04-13T10:57:36.925Z,64.9
2024-04-13T10:58:37.319Z,63.5
2024-04-13T10:59:36.940Z,63.9
2024-04-13T11:00:37.098Z,64.7
2024-04-13T11:01:37.000Z,66.7
2024-04-13T11:02:36.987Z,65.2
2024-04-13T11:04:36.919Z,64.3
2024-04-13T11:05:36.938Z,64.5
2024-04-13T11:06:36.984Z,64.6
2024-04-13T11:07:37.352Z,65
2024-04-13T11:08:37.047Z,65.4
2024-04-13T11:09:36.924Z,62.2
2024-04-13T11:10:37.658Z,60.7
2024-04-13T11:11:37.141Z,60.5
2024-04-13T11:12:36.913Z,59.9
2024-04-13T11:13:37.256Z,60.3
2024-04-13T11:15:37.541Z,60.2
2024-04-13T11:16:36.819Z,60.6
2024-04-13T11:17:37.134Z,58.8
2024-04-13T11:18:37.332Z,59
2024-04-13T11:19:36.236Z,58.5
2024-04-13T11:20:36.831Z,57.8
2024-04-13T11:21:36.865Z,59.4
2024-04-13T11:22:36.838Z,58.2
2024-04-13T11:24:37.569Z,58.1
2024-04-13T11:25:36.850Z,58.2
2024-04-13T11:26:36.990Z,56.5
2024-04-13T11:27:37.576Z,57.2
2024-04-13T11:28:36.265Z,57.6
2024-04-13T11:29:37.544Z,57
2024-04-13T11:30:36.928Z,56.9
2024-04-13T11:31:36.953Z,58
2024-04-13T11:32:36.865Z,56.1
2024-04-13T11:33:37.455Z,58.6
2024-04-13T11:34:36.840Z,58.6
2024-04-13T11:35:37.384Z,58.7
2024-04-13T11:36:36.926Z,57.7
2024-04-13T11:37:36.855Z,57.5
2024-04-13T11:38:37.122Z,58.4
2024-04-13T11:39:37.108Z,57.8
2024-04-13T11:40:36.822Z,57.4
2024-04-13T11:41:37.176Z,57.9
2024-04-13T11:42:45.546Z,58.5
2024-04-13T11:43:37.193Z,58.5
2024-04-13T11:44:37.377Z,58.2
2024-04-13T11:45:39.598Z,58.7
2024-04-13T11:47:36.989Z,60
2024-04-13T11:48:36.976Z,59.6
2024-04-13T11:50:36.869Z,59.2
2024-04-13T11:51:37.067Z,58.6
2024-04-13T11:52:36.908Z,60.8
2024-04-13T11:53:36.856Z,58.3
2024-04-13T11:54:37.266Z,57.3
2024-04-13T11:55:39.065Z,55.9
2024-04-13T11:56:37.589Z,56.9
2024-04-13T11:57:37.291Z,58.3
2024-04-13T11:58:37.859Z,56.4
2024-04-13T11:59:37.255Z,58.3
2024-04-13T12:00:36.961Z,56.5
2024-04-13T12:01:36.953Z,55.6
2024-04-13T12:02:37.111Z,57.2
2024-04-13T12:03:37.382Z,55.8
2024-04-13T12:05:37.262Z,56
2024-04-13T12:06:36.924Z,57
2024-04-13T12:07:36.836Z,56.7
2024-04-13T12:08:37.248Z,56.2
2024-04-13T12:09:37.093Z,53.9
2024-04-13T12:10:37.084Z,54.9
2024-04-13T12:11:36.888Z,55.2
2024-04-13T12:12:36.920Z,55.4
2024-04-13T12:13:37.550Z,55.4
2024-04-13T12:15:36.914Z,56
2024-04-13T12:16:36.877Z,55
2024-04-13T12:17:36.899Z,55.4
2024-04-13T12:18:37.077Z,54.3
2024-04-13T12:19:36.476Z,54.9
2024-04-13T12:20:37.090Z,56.5
2024-04-13T12:21:36.878Z,54.8
2024-04-13T12:22:36.903Z,54.6
2024-04-13T12:23:37.086Z,55.3
2024-04-13T12:24:37.271Z,55.3
2024-04-13T12:25:36.850Z,54.3
2024-04-13T12:26:37.308Z,53.3
2024-04-13T12:27:36.864Z,53.5
2024-04-13T12:28:36.852Z,55
2024-04-13T12:29:36.971Z,53
2024-04-13T12:31:36.929Z,53.8
2024-04-13T12:32:37.595Z,54.8
2024-04-13T12:33:37.648Z,52.9
2024-04-13T12:35:37.702Z,53.7
2024-04-13T12:36:37.375Z,51.6
2024-04-13T12:37:37.419Z,53.6
2024-04-13T12:38:37.399Z,54.4
2024-04-13T12:39:37.322Z,53.7
2024-04-13T12:40:37.837Z,55
2024-04-13T12:41:37.278Z,54.6
2024-04-13T12:42:37.361Z,52.7
2024-04-13T12:43:37.278Z,53.7
2024-04-13T12:45:37.322Z,52.3
2024-04-13T12:46:36.885Z,52.5
2024-04-13T12:47:37.019Z,51.5
2024-04-13T12:48:37.592Z,51.1
2024-04-13T12:49:36.174Z,51.4
2024-04-13T12:50:37.474Z,50
2024-04-13T12:51:37.065Z,52.2
2024-04-13T12:52:37.448Z,51.3
2024-04-13T12:53:36.927Z,51.7
2024-04-13T12:54:36.910Z,52.7
2024-04-13T12:55:36.880Z,52.4
2024-04-13T12:56:36.863Z,51
2024-04-13T12:57:37.828Z,50.6
2024-04-13T12:58:36.911Z,51.3
2024-04-13T12:59:36.862Z,50.8
2024-04-13T13:00:37.814Z,50.9
2024-04-13T13:01:36.975Z,50.3
2024-04-13T13:02:36.926Z,49.7
2024-04-13T13:03:37.487Z,50.1
2024-04-13T13:04:36.874Z,50.6
2024-04-13T13:05:36.868Z,49.2
2024-04-13T13:06:36.974Z,48.8
2024-04-13T13:07:36.910Z,50.7
2024-04-13T13:08:36.875Z,50.3
2024-04-13T13:09:37.494Z,49.9
2024-04-13T13:10:36.886Z,50.2
2024-04-13T13:11:37.414Z,50.6
2024-04-13T13:12:37.414Z,50.3
2024-04-13T13:13:36.870Z,50.5
2024-04-13T13:14:37.595Z,50
2024-04-13T13:15:37.017Z,49.3
2024-04-13T13:16:36.889Z,48.9
2024-04-13T13:17:36.920Z,50.8
2024-04-13T13:18:36.900Z,50.3
2024-04-13T13:19:36.480Z,51.3
2024-04-13T13:20:36.875Z,50.6
2024-04-13T13:21:36.916Z,50.5
2024-04-13T13:22:36.887Z,49.3
2024-04-13T13:23:36.984Z,49.7
2024-04-13T13:24:37.167Z,49.1
2024-04-13T13:25:36.886Z,48.7
2024-04-13T13:26:36.873Z,46.4
2024-04-13T13:27:37.831Z,44.6
2024-04-13T13:28:37.218Z,44.6
2024-04-13T13:29:37.150Z,43.2
2024-04-13T13:30:36.912Z,43.7
2024-04-13T13:31:37.303Z,42.8
2024-04-13T13:32:36.988Z,42.9
2024-04-13T13:33:37.102Z,42.1
2024-04-13T13:34:36.888Z,42.2
2024-04-13T13:35:37.561Z,42.7
2024-04-13T13:36:37.669Z,42
2024-04-13T13:37:36.884Z,42
2024-04-13T13:38:36.879Z,42
2024-04-13T13:39:36.927Z,41.1
2024-04-13T13:40:36.906Z,41.7
2024-04-13T13:41:37.799Z,41.9
2024-04-13T13:42:37.036Z,41.3
2024-04-13T13:43:37.417Z,41.2
2024-04-13T13:44:36.889Z,40.8
2024-04-13T13:45:36.954Z,41.9
2024-04-13T13:46:37.075Z,42.3
2024-04-13T13:47:36.966Z,41.9
2024-04-13T13:48:37.009Z,41.8
2024-04-13T13:49:35.965Z,41.5
2024-04-13T13:50:36.906Z,42
2024-04-13T13:51:37.021Z,42.2
2024-04-13T13:52:36.897Z,43.1
2024-04-13T13:54:36.937Z,41.7
2024-04-13T13:55:37.314Z,41.2
2024-04-13T13:56:36.988Z,41.8
2024-04-13T13:57:37.011Z,41.9
2024-04-13T13:58:36.434Z,41.4
2024-04-13T13:59:37.517Z,41.7
2024-04-13T14:00:37.054Z,42
2024-04-13T14:01:36.952Z,41.9
2024-04-13T14:02:37.671Z,41.2
2024-04-13T14:03:37.082Z,42.6
2024-04-13T14:04:36.905Z,41.9
2024-04-13T14:05:36.918Z,42.7
2024-04-13T14:06:36.966Z,40.8
2024-04-13T14:07:36.906Z,40.6
2024-04-13T14:08:36.902Z,41.4
2024-04-13T14:09:37.535Z,40
2024-04-13T14:10:37.114Z,40.4
2024-04-13T14:11:36.907Z,40.8
2024-04-13T14:12:37.695Z,42
2024-04-13T14:13:36.927Z,41
2024-04-13T14:14:36.931Z,40.4
2024-04-13T14:15:38.474Z,40
2024-04-13T14:16:36.957Z,39.3
2024-04-13T14:17:37.216Z,40.4
2024-04-13T14:18:37.045Z,40
2024-04-13T14:20:36.908Z,40.2
2024-04-13T14:21:37.527Z,40
2024-04-13T14:22:37.763Z,40.6
2024-04-13T14:23:36.937Z,39.1
2024-04-13T14:24:37.433Z,40.9
2024-04-13T14:25:36.928Z,40.2
2024-04-13T14:26:36.926Z,39.4
2024-04-13T14:27:37.234Z,39.6
2024-04-13T14:28:36.904Z,39.5
2024-04-13T14:29:37.009Z,40.5
2024-04-13T14:30:37.777Z,39.8
2024-04-13T14:31:37.684Z,39.7
2024-04-13T14:32:37.978Z,40.1